createdAt,value
2022-10-29T00:02:10.042Z,99085.63
2022-10-29T00:04:55.389Z,99032.06
2022-10-29T00:07:40.738Z,99067.34
2022-10-29T00:10:26.754Z,99037.59
2022-10-29T00:13:12.299Z,99077.13
2022-10-29T00:15:57.514Z,99069.00
2022-10-29T00:18:43.242Z,99035.88
2022-10-29T00:21:29.039Z,98844.16
2022-10-29T00:24:14.443Z,99070.44
2022-10-29T00:26:59.806Z,99060.47
2022-10-29T00:29:45.155Z,98888.88
2022-10-29T00:32:30.448Z,99052.53
2022-10-29T00:35:16.024Z,99071.97
2022-10-29T00:38:01.497Z,98788.16
2022-10-29T00:40:46.822Z,99067.13
2022-10-29T00:43:37.392Z,98902.94
2022-10-29T00:47:04.492Z,99047.94
2022-10-29T00:50:10.629Z,99053.47
2022-10-29T00:52:57.035Z,99055.28
2022-10-29T00:55:42.667Z,99038.50
2022-10-29T00:58:29.272Z,99033.47
2022-10-29T01:01:15.531Z,99059.66
2022-10-29T01:04:01.826Z,98969.06
2022-10-29T01:06:48.073Z,99025.72
2022-10-29T01:09:33.527Z,99034.00
2022-10-29T01:12:26.979Z,98867.00
2022-10-29T01:15:44.800Z,99058.75
2022-10-29T01:18:45.469Z,99038.22
2022-10-29T01:21:42.838Z,98858.84
2022-10-29T01:24:49.538Z,99026.03
2022-10-29T01:27:51.623Z,99027.88
2022-10-29T01:31:16.097Z,98946.50
2022-10-29T01:34:18.404Z,98967.22
2022-10-29T01:37:11.319Z,99012.50
2022-10-29T01:40:18.075Z,99019.50
2022-10-29T01:43:14.257Z,98987.19
2022-10-29T01:46:19.391Z,99027.09
2022-10-29T01:49:11.789Z,98824.91
2022-10-29T01:52:01.753Z,99028.97
2022-10-29T01:54:48.332Z,98804.63
2022-10-29T01:57:36.885Z,98822.69
2022-10-29T02:00:22.699Z,98958.78
2022-10-29T02:03:42.526Z,98932.06
2022-10-29T02:06:36.481Z,99017.88
2022-10-29T02:09:50.625Z,98928.44
2022-10-29T02:12:45.588Z,98996.47
2022-10-29T02:15:38.799Z,98796.13
2022-10-29T02:18:24.432Z,98948.06
2022-10-29T02:21:09.965Z,98927.63
2022-10-29T02:23:55.325Z,98941.63
2022-10-29T02:26:40.781Z,98786.09
2022-10-29T02:29:26.190Z,98811.91
2022-10-29T02:32:11.600Z,98947.22
2022-10-29T02:34:56.825Z,98935.00
2022-10-29T02:37:42.308Z,98973.03
2022-10-29T02:40:27.524Z,98978.94
2022-10-29T02:43:13.065Z,98971.53
2022-10-29T02:46:18.634Z,98774.44
2022-10-29T02:49:04.434Z,98776.97
2022-10-29T02:51:50.380Z,98961.91
2022-10-29T02:54:36.131Z,98783.97
2022-10-29T02:57:21.656Z,98884.75
2022-10-29T03:00:07.676Z,98951.22
2022-10-29T03:02:53.031Z,98948.47
2022-10-29T03:05:38.167Z,98946.03
2022-10-29T03:08:23.737Z,98967.53
2022-10-29T03:11:09.678Z,98771.78
2022-10-29T03:13:55.058Z,98817.41
2022-10-29T03:16:40.363Z,98972.47
2022-10-29T03:19:25.740Z,98930.63
2022-10-29T03:22:11.303Z,98953.91
2022-10-29T03:24:56.636Z,98911.22
2022-10-29T03:27:43.540Z,98908.84
2022-10-29T03:30:28.853Z,98938.44
2022-10-29T03:33:14.674Z,98795.63
2022-10-29T03:36:02.663Z,98747.25
2022-10-29T03:38:47.804Z,98937.78
2022-10-29T03:41:33.075Z,98748.00
2022-10-29T03:44:18.585Z,98936.16
2022-10-29T03:47:03.979Z,98922.13
2022-10-29T03:49:49.470Z,98875.69
2022-10-29T03:52:34.965Z,98926.19
2022-10-29T03:55:20.315Z,98874.75
2022-10-29T03:58:05.636Z,98847.38
2022-10-29T04:01:05.882Z,98754.75
2022-10-29T04:03:51.346Z,98756.84
2022-10-29T04:06:36.646Z,98906.72
2022-10-29T04:09:22.066Z,98894.13
2022-10-29T04:12:08.404Z,98713.47
2022-10-29T04:14:54.064Z,98888.97
2022-10-29T04:17:39.537Z,98892.16
2022-10-29T04:20:47.708Z,98891.16
2022-10-29T04:29:41.788Z,98706.72
2022-10-29T04:32:27.667Z,98763.63
2022-10-29T04:35:13.467Z,98832.78
2022-10-29T04:37:58.931Z,98888.41
2022-10-29T04:40:44.109Z,98717.88
2022-10-29T04:43:29.836Z,98906.13
2022-10-29T04:46:15.112Z,98811.94
2022-10-29T04:49:00.790Z,98738.59
2022-10-29T04:51:46.433Z,98730.53
2022-10-29T04:54:31.785Z,98761.53
2022-10-29T04:57:17.221Z,98799.88
2022-10-29T05:00:02.796Z,98889.69
2022-10-29T05:02:49.872Z,98889.50
2022-10-29T05:05:37.961Z,98840.56
2022-10-29T05:08:23.559Z,98735.50
2022-10-29T05:11:09.439Z,98700.00
2022-10-29T05:13:54.724Z,98851.31
2022-10-29T05:16:40.138Z,98841.72
2022-10-29T05:19:25.748Z,98817.72
2022-10-29T05:22:11.311Z,98874.41
2022-10-29T05:24:57.022Z,98725.41
2022-10-29T05:27:42.547Z,98683.09
2022-10-29T05:30:28.262Z,98817.00
2022-10-29T05:33:22.862Z,98876.88
2022-10-29T05:36:08.521Z,98881.16
2022-10-29T05:38:54.634Z,98858.28
2022-10-29T05:41:40.184Z,98810.91
2022-10-29T05:44:25.676Z,98881.75
2022-10-29T05:47:11.271Z,98762.28
2022-10-29T05:49:56.648Z,98888.06
2022-10-29T05:52:42.176Z,98857.44
2022-10-29T05:55:29.787Z,98907.66
2022-10-29T05:58:15.104Z,98871.50
2022-10-29T06:01:00.448Z,98704.84
2022-10-29T06:03:46.472Z,98848.28
2022-10-29T06:06:31.823Z,98753.53
2022-10-29T06:09:17.224Z,98870.75
2022-10-29T06:12:03.300Z,98861.59
2022-10-29T06:14:49.266Z,98880.81
2022-10-29T06:17:34.577Z,98879.34
2022-10-29T06:20:21.822Z,98843.50
2022-10-29T06:23:07.425Z,98868.97
2022-10-29T06:25:52.990Z,98757.03
2022-10-29T06:28:38.420Z,98852.38
2022-10-29T06:31:24.008Z,98876.13
2022-10-29T06:34:09.501Z,98874.66
2022-10-29T06:36:55.879Z,98708.72
2022-10-29T06:39:41.316Z,98693.75
2022-10-29T06:42:26.816Z,98875.22
2022-10-29T06:45:12.301Z,98820.84
2022-10-29T06:47:58.566Z,98864.19
2022-10-29T06:50:44.518Z,98862.69
2022-10-29T06:53:29.863Z,98866.81
2022-10-29T06:56:15.305Z,98865.53
2022-10-29T06:59:00.922Z,98700.88
2022-10-29T07:01:46.732Z,98796.25
2022-10-29T07:04:32.264Z,98847.41
2022-10-29T07:07:17.932Z,98698.47
2022-10-29T07:10:03.672Z,98865.50
2022-10-29T07:12:49.020Z,98693.50
2022-10-29T07:15:34.787Z,98864.06
2022-10-29T07:18:20.123Z,98865.72
2022-10-29T07:21:05.834Z,98725.94
2022-10-29T07:23:51.604Z,98858.56
2022-10-29T07:26:37.247Z,98831.03
2022-10-29T07:29:22.713Z,98862.78
2022-10-29T07:32:08.181Z,98860.72
2022-10-29T07:34:53.423Z,98801.28
2022-10-29T07:37:39.039Z,98680.91
2022-10-29T07:40:24.317Z,98821.47
2022-10-29T07:43:09.686Z,98819.19
2022-10-29T07:45:54.982Z,98876.97
2022-10-29T07:48:40.576Z,98864.34
2022-10-29T07:51:26.235Z,98857.25
2022-10-29T07:54:14.738Z,98785.38
2022-10-29T07:57:00.544Z,98836.84
2022-10-29T07:59:47.021Z,98747.22
2022-10-29T08:02:33.327Z,98840.03
2022-10-29T08:05:18.768Z,98710.47
2022-10-29T08:08:05.606Z,98835.03
2022-10-29T08:10:51.410Z,98821.72
2022-10-29T08:13:36.425Z,98832.59
2022-10-29T08:16:22.599Z,98808.22
2022-10-29T08:19:09.756Z,98706.25
2022-10-29T08:21:56.218Z,98802.66
2022-10-29T08:24:41.958Z,98653.16
2022-10-29T08:27:28.000Z,98702.31
2022-10-29T08:30:16.033Z,98809.66
2022-10-29T08:33:02.016Z,98649.91
2022-10-29T08:35:48.087Z,98783.69
2022-10-29T08:38:34.520Z,98826.69
2022-10-29T08:41:57.464Z,98830.41
2022-10-29T08:45:03.190Z,98825.28
2022-10-29T08:48:12.387Z,98789.03
2022-10-29T08:51:28.748Z,98823.41
2022-10-29T08:54:32.231Z,98818.84
2022-10-29T08:57:26.449Z,98830.63
2022-10-29T09:00:18.102Z,98822.56
2022-10-29T09:03:11.024Z,98784.56
2022-10-29T09:06:05.994Z,98821.09
2022-10-29T09:08:52.338Z,98834.75
2022-10-29T09:11:46.535Z,98814.22
2022-10-29T09:14:45.808Z,98653.16
2022-10-29T09:18:10.420Z,98808.22
2022-10-29T09:21:17.807Z,98821.25
2022-10-29T09:24:22.812Z,98668.28
2022-10-29T09:27:22.896Z,98799.97
2022-10-29T09:30:17.362Z,98778.97
2022-10-29T09:33:14.045Z,98656.84
2022-10-29T09:36:01.177Z,98772.81
2022-10-29T09:38:59.082Z,98830.59
2022-10-29T09:41:45.023Z,98788.50
2022-10-29T09:44:43.517Z,98808.44
2022-10-29T09:47:46.524Z,98797.69
2022-10-29T09:50:41.828Z,98707.66
2022-10-29T09:53:27.037Z,98711.00
2022-10-29T09:56:12.827Z,98812.56
2022-10-29T09:59:25.344Z,98634.72
2022-10-29T10:02:31.077Z,98637.78
2022-10-29T10:05:25.081Z,98655.63
2022-10-29T10:08:14.799Z,98644.16
2022-10-29T10:11:06.968Z,98723.19
2022-10-29T10:13:59.732Z,98772.63
2022-10-29T10:16:45.400Z,98708.47
2022-10-29T10:19:32.486Z,98623.84
2022-10-29T10:22:24.349Z,98793.41
2022-10-29T10:25:34.164Z,98768.63
2022-10-29T10:28:19.867Z,98788.59
2022-10-29T10:31:13.083Z,98769.91
2022-10-29T10:33:58.711Z,98617.50
2022-10-29T10:36:57.019Z,98749.31
2022-10-29T10:39:54.786Z,98604.41
2022-10-29T10:42:47.058Z,98729.75
2022-10-29T10:45:40.194Z,98569.81
2022-10-29T10:48:32.643Z,98746.63
2022-10-29T10:51:25.203Z,98751.25
2022-10-29T10:54:44.678Z,98599.69
2022-10-29T10:57:34.597Z,98720.47
2022-10-29T11:00:21.931Z,98764.16
2022-10-29T11:03:18.161Z,98720.38
2022-10-29T11:06:10.191Z,98733.28
2022-10-29T11:09:14.511Z,98730.34
2022-10-29T11:12:10.677Z,98693.06
2022-10-29T11:15:05.385Z,98731.44
2022-10-29T11:18:03.457Z,98723.03
2022-10-29T11:21:14.177Z,98730.09
2022-10-29T11:24:09.106Z,98725.97
2022-10-29T11:27:01.640Z,98629.47
2022-10-29T11:30:04.020Z,98669.47
2022-10-29T11:33:24.389Z,98719.69
2022-10-29T11:36:23.580Z,98591.25
2022-10-29T11:39:18.116Z,98713.38
2022-10-29T11:42:04.104Z,98618.63
2022-10-29T11:44:50.140Z,98670.72
2022-10-29T11:47:59.691Z,98651.78
2022-10-29T11:51:05.779Z,98685.78
2022-10-29T11:53:54.718Z,98689.06
2022-10-29T11:56:53.906Z,98689.34
2022-10-29T11:59:45.754Z,98709.03
2022-10-29T12:02:53.782Z,98709.91
2022-10-29T12:05:39.768Z,98688.97
2022-10-29T12:08:46.673Z,98680.09
2022-10-29T12:11:42.998Z,98697.25
2022-10-29T12:14:34.385Z,98692.75
2022-10-29T12:17:39.890Z,98638.22
2022-10-29T12:20:38.316Z,98686.31
2022-10-29T12:23:50.769Z,98550.88
2022-10-29T12:26:57.406Z,98699.78
2022-10-29T12:29:53.329Z,98660.56
2022-10-29T12:32:53.514Z,98611.19
2022-10-29T12:36:05.161Z,98608.03
2022-10-29T12:38:56.371Z,98607.00
2022-10-29T12:41:48.129Z,98674.44
2022-10-29T12:44:58.832Z,98643.94
2022-10-29T12:48:04.785Z,98675.34
2022-10-29T12:51:02.015Z,98665.34
2022-10-29T12:54:21.432Z,98660.94
2022-10-29T12:57:12.818Z,98650.44
2022-10-29T13:00:23.985Z,98645.50
2022-10-29T13:03:10.515Z,98640.13
2022-10-29T13:05:56.429Z,98622.41
2022-10-29T13:08:54.536Z,98614.81
2022-10-29T13:11:47.758Z,98633.91
2022-10-29T13:14:39.187Z,98571.78
2022-10-29T13:17:36.481Z,98594.66
2022-10-29T13:20:27.808Z,98471.94
2022-10-29T13:23:22.449Z,98650.84
2022-10-29T13:26:09.187Z,98579.34
2022-10-29T13:28:54.758Z,98613.38
2022-10-29T13:31:46.462Z,98663.50
2022-10-29T13:35:10.701Z,98653.66
2022-10-29T13:38:12.166Z,98620.59
2022-10-29T13:41:03.832Z,98659.00
2022-10-29T13:44:14.265Z,98582.38
2022-10-29T13:47:03.522Z,98493.56
2022-10-29T13:49:49.724Z,98500.69
2022-10-29T13:52:37.381Z,98479.00
2022-10-29T13:55:23.002Z,98468.06
2022-10-29T13:58:32.125Z,98508.16
2022-10-29T14:01:20.855Z,98618.25
2022-10-29T14:04:25.779Z,98510.63
2022-10-29T14:07:18.542Z,98625.31
2022-10-29T14:10:14.976Z,98486.28
2022-10-29T14:13:26.407Z,98602.94
2022-10-29T14:16:13.510Z,98487.28
2022-10-29T14:19:13.749Z,98533.94
2022-10-29T14:21:59.473Z,98584.75
2022-10-29T14:24:44.889Z,98481.25
2022-10-29T14:27:30.605Z,98643.41
2022-10-29T14:30:19.971Z,98562.38
2022-10-29T14:33:26.120Z,98598.06
2022-10-29T14:36:15.621Z,98593.50
2022-10-29T14:39:01.139Z,98631.38
2022-10-29T14:41:49.980Z,98605.22
2022-10-29T14:44:35.464Z,98619.09
2022-10-29T14:47:30.408Z,98621.78
2022-10-29T14:50:25.428Z,98469.47
2022-10-29T14:53:23.043Z,98446.16
2022-10-29T14:56:18.678Z,98456.00
2022-10-29T14:59:14.140Z,98613.28
2022-10-29T15:02:17.119Z,98618.66
2022-10-29T15:05:30.419Z,98487.97
2022-10-29T15:08:24.071Z,98633.53
2022-10-29T15:11:34.077Z,98645.97
2022-10-29T15:14:31.449Z,98642.94
2022-10-29T15:17:22.561Z,98642.81
2022-10-29T15:20:42.006Z,98634.19
2022-10-29T15:23:35.468Z,98632.38
2022-10-29T15:26:23.185Z,98555.47
2022-10-29T15:29:11.746Z,98493.47
2022-10-29T15:31:57.901Z,98484.72
2022-10-29T15:34:56.821Z,98627.16
2022-10-29T15:37:47.455Z,98598.53
2022-10-29T15:41:16.345Z,98639.44
2022-10-29T15:44:28.258Z,98622.00
2022-10-29T15:47:26.500Z,98497.41
2022-10-29T15:50:36.562Z,98602.91
2022-10-29T15:53:21.897Z,98638.06
2022-10-29T15:56:12.329Z,98636.22
2022-10-29T15:59:00.841Z,98585.13
2022-10-29T16:01:46.954Z,98637.47
2022-10-29T16:04:34.032Z,98615.53
2022-10-29T16:07:21.540Z,98561.72
2022-10-29T16:10:13.020Z,98664.47
2022-10-29T16:12:59.607Z,98528.22
2022-10-29T16:15:44.898Z,98655.69
2022-10-29T16:18:30.324Z,98589.81
2022-10-29T16:21:21.738Z,98593.84
2022-10-29T16:24:13.232Z,98621.44
2022-10-29T16:26:58.687Z,98363.03
2022-10-29T16:29:44.367Z,98478.53
2022-10-29T16:32:30.205Z,98634.63
2022-10-29T16:35:24.624Z,98478.41
2022-10-29T16:38:11.194Z,98652.59
2022-10-29T16:40:56.446Z,98605.34
2022-10-29T16:43:43.364Z,98509.94
2022-10-29T16:46:28.552Z,98643.47
2022-10-29T16:49:13.917Z,98640.03
2022-10-29T16:51:59.222Z,98642.94
2022-10-29T16:54:44.845Z,98518.84
2022-10-29T16:57:30.531Z,98660.97
2022-10-29T17:00:16.042Z,98603.97
2022-10-29T17:03:10.963Z,98508.25
2022-10-29T17:06:04.258Z,98573.63
2022-10-29T17:08:50.130Z,98621.06
2022-10-29T17:11:35.620Z,98517.81
2022-10-29T17:14:21.096Z,98498.94
2022-10-29T17:17:06.985Z,98437.19
2022-10-29T17:19:53.770Z,98496.41
2022-10-29T17:22:39.453Z,98623.47
2022-10-29T17:25:25.225Z,98612.88
2022-10-29T17:28:10.781Z,98566.56
2022-10-29T17:30:56.274Z,98628.72
2022-10-29T17:33:41.762Z,98645.00
2022-10-29T17:36:27.027Z,98616.34
2022-10-29T17:39:12.615Z,98620.25
2022-10-29T17:41:58.633Z,98481.38
2022-10-29T17:44:44.053Z,98619.78
2022-10-29T17:47:30.028Z,98550.59
2022-10-29T17:50:15.734Z,98542.41
2022-10-29T17:53:01.173Z,98526.69
2022-10-29T17:55:46.520Z,98595.81
2022-10-29T17:58:31.854Z,98643.13
2022-10-29T18:01:17.938Z,98599.00
2022-10-29T18:04:05.060Z,98619.44
2022-10-29T18:06:50.796Z,98602.94
2022-10-29T18:09:36.511Z,98523.13
2022-10-29T18:12:21.766Z,98509.84
2022-10-29T18:15:08.220Z,98512.22
2022-10-29T18:17:53.822Z,98641.50
2022-10-29T18:20:39.207Z,98633.72
2022-10-29T18:23:24.729Z,98599.63
2022-10-29T18:26:29.100Z,98582.84
2022-10-29T18:29:15.105Z,98516.47
2022-10-29T18:32:00.740Z,98647.28
2022-10-29T18:34:46.614Z,98484.00
2022-10-29T18:37:32.253Z,98660.84
2022-10-29T18:40:18.184Z,98630.94
2022-10-29T18:43:04.160Z,98583.59
2022-10-29T18:45:56.154Z,98648.41
2022-10-29T18:48:47.498Z,98589.09
2022-10-29T18:51:33.437Z,98639.97
2022-10-29T18:54:19.898Z,98603.78
2022-10-29T18:57:05.123Z,98634.38
2022-10-29T18:59:50.540Z,98593.69
2022-10-29T19:02:36.091Z,98620.13
2022-10-29T19:05:21.632Z,98610.22
2022-10-29T19:08:08.889Z,98600.34
2022-10-29T19:10:55.832Z,98621.34
2022-10-29T19:13:42.178Z,98532.81
2022-10-29T19:16:29.033Z,98616.22
2022-10-29T19:19:17.288Z,98573.13
2022-10-29T19:22:05.344Z,98433.56
2022-10-29T19:24:50.922Z,98507.88
2022-10-29T19:27:37.560Z,98621.53
2022-10-29T19:30:23.659Z,98591.25
2022-10-29T19:33:09.337Z,98603.25
2022-10-29T19:35:54.962Z,98604.28
2022-10-29T19:38:40.512Z,98588.72
2022-10-29T19:41:26.829Z,98638.59
2022-10-29T19:44:12.577Z,98487.47
2022-10-29T19:46:58.081Z,98640.41
2022-10-29T19:49:43.551Z,98621.94
2022-10-29T19:52:29.259Z,98627.94
2022-10-29T19:55:14.697Z,98481.06
2022-10-29T19:58:00.126Z,98481.06
2022-10-29T20:00:45.973Z,98654.13
2022-10-29T20:03:32.244Z,98577.97
2022-10-29T20:06:18.120Z,98554.38
2022-10-29T20:09:04.136Z,98577.97
2022-10-29T20:11:49.829Z,98583.91
2022-10-29T20:14:35.733Z,98549.00
2022-10-29T20:17:21.445Z,98639.00
2022-10-29T20:20:08.259Z,98471.13
2022-10-29T20:22:55.133Z,98558.66
2022-10-29T20:25:40.550Z,98567.88
2022-10-29T20:28:25.931Z,98645.69
2022-10-29T20:31:14.210Z,98656.34
2022-10-29T20:34:00.878Z,98482.28
2022-10-29T20:36:47.359Z,98524.59
2022-10-29T20:39:33.589Z,98594.53
2022-10-29T20:42:19.492Z,98584.19
2022-10-29T20:45:05.658Z,98646.13
2022-10-29T20:47:50.997Z,98639.38
2022-10-29T20:50:36.459Z,98557.81
2022-10-29T20:53:21.701Z,98610.81
2022-10-29T20:56:10.337Z,98634.38
2022-10-29T20:58:58.859Z,98646.13
2022-10-29T21:01:44.584Z,98561.03
2022-10-29T21:04:30.329Z,98524.69
2022-10-29T21:07:16.055Z,98483.72
2022-10-29T21:10:01.696Z,98512.72
2022-10-29T21:12:47.167Z,98619.16
2022-10-29T21:15:36.470Z,98661.69
2022-10-29T21:18:22.609Z,98543.19
2022-10-29T21:21:08.914Z,98642.47
2022-10-29T21:23:54.983Z,98475.56
2022-10-29T21:26:40.458Z,98614.47
2022-10-29T21:29:26.087Z,98488.44
2022-10-29T21:32:14.384Z,98619.63
2022-10-29T21:35:02.652Z,98551.56
2022-10-29T21:37:48.134Z,98617.72
2022-10-29T21:40:33.756Z,98505.72
2022-10-29T21:43:21.910Z,98548.47
2022-10-29T21:46:08.158Z,98607.63
2022-10-29T21:48:55.981Z,98658.06
2022-10-29T21:51:42.503Z,98473.06
2022-10-29T21:54:28.499Z,98538.38
2022-10-29T21:57:14.240Z,98637.41
2022-10-29T21:59:59.515Z,98601.94
2022-10-29T22:02:45.094Z,98483.03
2022-10-29T22:05:30.733Z,98489.91
2022-10-29T22:08:16.466Z,98653.69
2022-10-29T22:11:02.254Z,98487.72
2022-10-29T22:13:47.750Z,98499.88
2022-10-29T22:16:33.140Z,98641.38
2022-10-29T22:19:18.418Z,98643.56
2022-10-29T22:22:03.732Z,98643.28
2022-10-29T22:24:49.471Z,98630.69
2022-10-29T22:27:34.769Z,98664.28
2022-10-29T22:30:20.211Z,98658.72
2022-10-29T22:33:05.353Z,98648.28
2022-10-29T22:35:51.051Z,98602.44
2022-10-29T22:38:36.675Z,98611.69
2022-10-29T22:41:23.604Z,98520.81
2022-10-29T22:44:09.437Z,98679.09
2022-10-29T22:46:55.033Z,98452.59
2022-10-29T22:49:40.327Z,98624.69
2022-10-29T22:52:26.080Z,98603.44
2022-10-29T22:55:11.443Z,98541.34
2022-10-29T22:57:56.908Z,98482.16
2022-10-29T23:00:42.238Z,98637.75
2022-10-29T23:03:27.535Z,98647.28
2022-10-29T23:06:15.772Z,98628.81
2022-10-29T23:09:04.134Z,98632.75
2022-10-29T23:11:49.580Z,98458.59
2022-10-29T23:14:35.204Z,98617.94
2022-10-29T23:17:20.640Z,98627.06
2022-10-29T23:20:06.789Z,98593.63
2022-10-29T23:22:52.364Z,98616.50
2022-10-29T23:25:40.656Z,98627.63
2022-10-29T23:28:26.202Z,98468.81
2022-10-29T23:31:15.289Z,98475.56
2022-10-29T23:34:00.821Z,98490.66
2022-10-29T23:36:46.362Z,98456.97
2022-10-29T23:39:31.692Z,98618.25
2022-10-29T23:42:17.214Z,98623.09
2022-10-29T23:45:07.748Z,98647.00
2022-10-29T23:47:53.310Z,98624.72
2022-10-29T23:50:39.001Z,98605.38
2022-10-29T23:53:25.314Z,98566.81
2022-10-29T23:56:10.616Z,98477.59
2022-10-29T23:58:56.172Z,98645.25
